Time;durP1;ratioP1;P1;durP2;ratioP2;P2;SDS_P1;SDS_P2;PMS_P1;PMS_P2;Temp;Humidity;BMP_temperature;BMP_pressure;BME280_temperature;BME280_humidity;BME280_pressure;Samples;Min_cycle;Max_cycle;Signal;HPM_P1;HPM_P2
2023/04/06 00:01:57;;;;;;;7.20;6.20;;;3.80;67.70;;;;;;5052097;28;20538;-51
2023/04/06 00:04:24;;;;;;;6.70;6.00;;;3.80;63.20;;;;;;5052092;28;20973;-50
2023/04/06 00:06:50;;;;;;;8.17;6.03;;;3.80;60.80;;;;;;5053192;28;20444;-50
2023/04/06 00:09:17;;;;;;;6.77;6.07;;;3.80;66.50;;;;;;5053110;28;20507;-51
2023/04/06 00:11:43;;;;;;;7.63;5.70;;;3.80;57.40;;;;;;5049405;28;20906;-51
2023/04/06 00:14:10;;;;;;;9.33;5.57;;;3.70;46.90;;;;;;5050612;28;20457;-51
2023/04/06 00:16:37;;;;;;;6.23;5.63;;;3.70;52.80;;;;;;5052804;28;20468;-51
2023/04/06 00:19:05;;;;;;;6.20;5.60;;;3.60;33.00;;;;;;5052956;28;20475;-51
2023/04/06 00:21:31;;;;;;;9.37;5.97;;;3.50;40.90;;;;;;5051735;28;20488;-51
2023/04/06 00:23:58;;;;;;;12.13;5.93;;;3.50;35.70;;;;;;5043251;28;21172;-51
2023/04/06 00:26:25;;;;;;;11.70;6.70;;;3.50;35.40;;;;;;5049358;28;20522;-51
2023/04/06 00:28:52;;;;;;;7.40;6.47;;;3.40;24.70;;;;;;5050368;28;20490;-51
2023/04/06 00:31:18;;;;;;;8.00;6.07;;;3.40;26.00;;;;;;5046557;28;20492;-50
2023/04/06 00:33:45;;;;;;;6.73;5.07;;;3.30;21.90;;;;;;5050521;28;20947;-55
2023/04/06 00:36:13;;;;;;;9.03;6.40;;;3.20;20.40;;;;;;5049708;28;20469;-51
2023/04/06 00:38:40;;;;;;;6.90;5.20;;;3.20;99.90;;;;;;5052014;28;20927;-50
2023/04/06 00:41:06;;;;;;;8.87;5.27;;;3.10;99.90;;;;;;5046543;28;20545;-51
2023/04/06 00:43:33;;;;;;;10.50;6.17;;;3.00;99.90;;;;;;5050215;28;20483;-50
2023/04/06 00:45:59;;;;;;;11.13;6.30;;;2.90;99.90;;;;;;5042948;28;20461;-51
2023/04/06 00:48:26;;;;;;;11.03;5.50;;;2.80;99.90;;;;;;5051459;28;20864;-50
2023/04/06 00:50:53;;;;;;;7.87;6.10;;;2.70;99.90;;;;;;5050651;28;20464;-50
2023/04/06 00:53:21;;;;;;;7.43;5.40;;;2.70;99.90;;;;;;5050129;28;21002;-50
2023/04/06 00:55:48;;;;;;;7.67;5.70;;;2.60;99.90;;;;;;5048346;28;20461;-51
2023/04/06 00:58:14;;;;;;;5.67;5.17;;;2.60;99.90;;;;;;5049314;28;21054;-51
2023/04/06 01:00:41;;;;;;;6.10;5.50;;;2.50;99.90;;;;;;5049729;28;20521;-51
2023/04/06 01:03:09;;;;;;;6.27;5.60;;;2.50;99.90;;;;;;5048911;28;20888;-51
2023/04/06 01:05:40;;;;;;;6.47;5.40;;;2.40;99.90;;;;;;5048876;28;20566;-51
2023/04/06 01:08:06;;;;;;;5.30;4.80;;;2.30;99.90;;;;;;5047786;28;20536;-51
2023/04/06 01:10:34;;;;;;;7.70;5.50;;;2.20;99.90;;;;;;5048808;28;20520;-51
2023/04/06 01:13:01;;;;;;;6.60;5.10;;;2.20;99.90;;;;;;5058990;28;20520;-51
2023/04/06 01:15:29;;;;;;;6.67;5.90;;;2.10;99.90;;;;;;5050962;28;20474;-51
2023/04/06 01:17:55;;;;;;;8.83;5.37;;;2.00;99.90;;;;;;5043521;28;20453;-51
2023/04/06 01:20:22;;;;;;;9.57;4.60;;;2.00;99.90;;;;;;5049412;28;20497;-51
2023/04/06 01:22:50;;;;;;;14.50;6.17;;;1.80;99.90;;;;;;5051753;28;20525;-50
2023/04/06 01:25:17;;;;;;;6.97;5.17;;;1.80;99.90;;;;;;5050442;28;20465;-51
2023/04/06 01:27:43;;;;;;;5.50;5.00;;;1.80;99.90;;;;;;5050284;28;20522;-51
2023/04/06 01:30:11;;;;;;;8.67;5.50;;;1.70;99.90;;;;;;5050258;28;20545;-51
2023/04/06 01:32:37;;;;;;;7.73;4.60;;;1.60;99.90;;;;;;5034877;28;20472;-52
2023/04/06 01:35:04;;;;;;;6.93;5.20;;;1.60;99.90;;;;;;5041003;28;20473;-52
2023/04/06 01:37:32;;;;;;;14.60;4.43;;;1.50;99.90;;;;;;5051514;28;20450;-52
2023/04/06 01:40:00;;;;;;;5.37;4.87;;;1.40;99.90;;;;;;5050088;28;20549;-51
2023/04/06 01:42:27;;;;;;;4.90;4.50;;;1.30;99.90;;;;;;5051188;28;20472;-51
2023/04/06 01:44:54;;;;;;;6.60;5.17;;;1.30;99.90;;;;;;5040568;28;20486;-50
2023/04/06 01:47:21;;;;;;;10.93;5.37;;;1.30;92.40;;;;;;5050943;28;20452;-51
2023/04/06 01:49:47;;;;;;;5.50;5.00;;;1.20;99.90;;;;;;5050359;28;20940;-50
2023/04/06 01:52:15;;;;;;;5.63;4.77;;;1.10;99.90;;;;;;5044815;28;20475;-50
2023/04/06 01:54:42;;;;;;;6.93;5.33;;;1.10;99.90;;;;;;5051103;28;20826;-50
2023/04/06 01:57:11;;;;;;;7.13;5.10;;;1.00;99.90;;;;;;5050588;28;20578;-51
2023/04/06 01:59:38;;;;;;;12.30;5.60;;;0.90;86.70;;;;;;5045624;28;20517;-52
2023/04/06 02:02:04;;;;;;;5.73;4.67;;;0.80;79.00;;;;;;5042295;28;21032;-51
2023/04/06 02:04:31;;;;;;;6.40;4.87;;;0.80;75.60;;;;;;5049267;28;20488;-51
2023/04/06 02:06:57;;;;;;;7.53;5.30;;;0.70;71.60;;;;;;5049321;28;20511;-51
2023/04/06 02:09:24;;;;;;;7.90;5.63;;;0.70;65.20;;;;;;5053449;28;20464;-51
2023/04/06 02:11:51;;;;;;;6.50;5.03;;;0.60;67.20;;;;;;5053824;28;20476;-51
2023/04/06 02:14:19;;;;;;;7.33;5.23;;;0.60;54.40;;;;;;5047567;28;20504;-51
2023/04/06 02:16:45;;;;;;;5.43;4.93;;;0.50;54.90;;;;;;5052883;28;20459;-50
2023/04/06 02:19:12;;;;;;;7.73;5.47;;;0.40;49.30;;;;;;5053703;28;22099;-52
2023/04/06 02:21:38;;;;;;;6.13;4.80;;;0.40;49.60;;;;;;5054446;28;20463;-51
2023/04/06 02:24:06;;;;;;;4.83;4.50;;;0.30;45.60;;;;;;5054737;28;20530;-51
2023/04/06 02:26:32;;;;;;;5.17;4.67;;;0.30;51.80;;;;;;5053967;28;20470;-50
2023/04/06 02:28:59;;;;;;;11.70;6.07;;;0.20;53.70;;;;;;5054232;28;20521;-50
2023/04/06 02:31:27;;;;;;;4.63;4.20;;;0.20;48.80;;;;;;5054460;28;20475;-51
2023/04/06 02:33:53;;;;;;;5.27;4.60;;;0.20;39.50;;;;;;5054430;28;20955;-51
2023/04/06 02:36:20;;;;;;;5.90;5.00;;;0.30;35.10;;;;;;5039239;28;21180;-51
2023/04/06 02:38:47;;;;;;;5.33;4.70;;;0.10;42.60;;;;;;5052081;28;20464;-51
2023/04/06 02:41:13;;;;;;;5.13;4.73;;;0.10;40.10;;;;;;5054341;28;21046;-51
2023/04/06 02:43:40;;;;;;;7.40;4.67;;;0.10;42.30;;;;;;5054412;28;20536;-51
2023/04/06 02:46:06;;;;;;;8.87;4.50;;;0.00;44.80;;;;;;5054649;28;20479;-51
2023/04/06 02:48:36;;;;;;;5.90;4.40;;;0.10;35.30;;;;;;5053173;28;21264;-52
2023/04/06 02:51:02;;;;;;;4.10;3.77;;;0.00;36.50;;;;;;5053067;28;20510;-52
2023/04/06 02:53:29;;;;;;;6.30;5.70;;;0.00;39.00;;;;;;5052501;28;20459;-51
2023/04/06 02:55:56;;;;;;;6.17;5.23;;;0.00;38.20;;;;;;5054132;28;20814;-51
2023/04/06 02:58:23;;;;;;;5.83;4.70;;;0.00;37.80;;;;;;5053451;28;20474;-51
2023/04/06 03:00:50;;;;;;;4.43;4.13;;;-0.10;39.40;;;;;;5054082;28;20937;-51
2023/04/06 03:03:16;;;;;;;4.73;4.30;;;-0.20;38.40;;;;;;5054527;28;20448;-51
2023/04/06 03:05:44;;;;;;;4.50;4.10;;;-0.20;36.70;;;;;;5053704;28;20456;-50
2023/04/06 03:08:11;;;;;;;5.10;4.60;;;-0.30;36.40;;;;;;5051412;28;20494;-51
2023/04/06 03:10:37;;;;;;;6.73;4.53;;;-0.30;34.20;;;;;;5051224;28;20468;-51
2023/04/06 03:13:04;;;;;;;4.87;4.40;;;-0.30;33.90;;;;;;5053991;28;20522;-51
2023/04/06 03:15:30;;;;;;;5.80;5.27;;;-0.30;33.40;;;;;;5052809;28;20463;-50
2023/04/06 03:17:58;;;;;;;7.10;4.73;;;-0.40;34.80;;;;;;5049669;28;21353;-50
2023/04/06 03:20:25;;;;;;;5.33;4.83;;;-0.40;34.50;;;;;;5046683;28;20521;-51
2023/04/06 03:22:53;;;;;;;8.53;5.40;;;-0.40;32.60;;;;;;5051994;28;20486;-51
2023/04/06 03:25:19;;;;;;;6.23;4.50;;;-0.40;31.10;;;;;;5052289;28;21059;-51
2023/04/06 03:27:46;;;;;;;7.20;5.20;;;-0.50;31.90;;;;;;5053459;28;20445;-51
2023/04/06 03:30:13;;;;;;;5.23;4.73;;;-0.50;25.90;;;;;;5053620;28;20493;-51
2023/04/06 03:32:40;;;;;;;5.93;5.30;;;-0.50;27.30;;;;;;5053451;28;20467;-50
2023/04/06 03:35:07;;;;;;;6.80;4.60;;;-0.60;29.30;;;;;;5050084;28;20518;-51
2023/04/06 03:37:33;;;;;;;6.30;5.23;;;-0.60;26.70;;;;;;5053537;28;20935;-51
2023/04/06 03:40:01;;;;;;;7.00;4.80;;;-0.60;27.00;;;;;;5053035;28;20461;-50
2023/04/06 03:42:28;;;;;;;6.83;4.90;;;-0.60;27.00;;;;;;5053482;28;20458;-50
2023/04/06 03:44:54;;;;;;;5.63;4.73;;;-0.70;27.30;;;;;;5053033;28;21006;-50
2023/04/06 03:47:21;;;;;;;5.30;4.60;;;-0.70;31.30;;;;;;5053215;28;20677;-51
2023/04/06 03:49:47;;;;;;;5.63;4.63;;;-0.70;30.50;;;;;;5051019;28;20459;-50
2023/04/06 03:52:14;;;;;;;8.13;5.20;;;-0.70;29.90;;;;;;5051570;28;20491;-51
2023/04/06 03:54:41;;;;;;;8.23;5.00;;;-0.80;28.80;;;;;;5052971;28;20439;-50
2023/04/06 03:57:09;;;;;;;8.90;5.03;;;-0.70;24.00;;;;;;5049171;28;20464;-51
2023/04/06 03:59:35;;;;;;;5.60;5.10;;;-0.70;23.20;;;;;;5049754;28;20468;-51
2023/04/06 04:02:02;;;;;;;6.40;4.80;;;-0.70;24.90;;;;;;5052011;28;20459;-51
2023/04/06 04:04:29;;;;;;;6.03;4.83;;;-0.70;83.30;;;;;;5052127;28;20492;-51
2023/04/06 04:06:55;;;;;;;5.87;5.37;;;-0.70;23.70;;;;;;5046332;28;20470;-51
2023/04/06 04:09:22;;;;;;;6.33;5.73;;;-0.70;80.20;;;;;;5052547;28;20884;-52
2023/04/06 04:11:49;;;;;;;6.37;5.50;;;-0.70;99.90;;;;;;5053153;28;20467;-51
2023/04/06 04:14:17;;;;;;;5.50;5.00;;;-0.70;99.90;;;;;;5052138;28;20862;-51
2023/04/06 04:16:43;;;;;;;6.00;5.40;;;-0.80;25.70;;;;;;5052402;28;20453;-51
2023/04/06 04:19:10;;;;;;;6.67;5.40;;;-0.80;77.70;;;;;;5049231;28;20465;-50
2023/04/06 04:21:43;;;;;;;6.83;5.43;;;-0.80;20.90;;;;;;5052640;28;20465;-50
2023/04/06 04:24:10;;;;;;;5.97;5.47;;;-0.80;99.90;;;;;;5052511;28;20525;-52
2023/04/06 04:26:37;;;;;;;7.03;5.60;;;-0.80;99.90;;;;;;5051702;28;20469;-51
2023/04/06 04:29:03;;;;;;;9.07;6.47;;;-0.80;99.90;;;;;;5051847;28;20588;-55
2023/04/06 04:31:31;;;;;;;6.47;5.37;;;-0.80;99.90;;;;;;5052537;28;20882;-54
2023/04/06 04:33:58;;;;;;;6.40;5.67;;;-0.80;99.90;;;;;;5051759;28;20505;-54
2023/04/06 04:36:25;;;;;;;6.53;5.83;;;-0.80;99.90;;;;;;5051741;28;20465;-55
2023/04/06 04:38:52;;;;;;;8.23;6.33;;;-0.80;99.90;;;;;;5052455;28;20471;-54
2023/04/06 04:41:19;;;;;;;11.40;6.73;;;-0.80;99.90;;;;;;5051279;28;20848;-54
2023/04/06 04:43:45;;;;;;;7.40;6.03;;;-0.80;99.90;;;;;;5052233;28;20855;-54
2023/04/06 04:46:12;;;;;;;8.47;5.93;;;-0.80;99.90;;;;;;5052517;28;20490;-54
2023/04/06 04:48:40;;;;;;;9.50;6.00;;;-0.80;99.90;;;;;;5050786;28;20514;-55
2023/04/06 04:51:06;;;;;;;7.20;6.50;;;-0.80;99.90;;;;;;5048178;28;20527;-51
2023/04/06 04:53:33;;;;;;;10.70;7.30;;;-0.80;99.90;;;;;;5052104;28;20503;-51
2023/04/06 04:56:00;;;;;;;7.20;6.50;;;-0.80;99.90;;;;;;5050351;28;20456;-51
2023/04/06 04:58:26;;;;;;;11.00;6.90;;;-0.80;99.90;;;;;;5049377;28;20464;-51
2023/04/06 05:00:53;;;;;;;6.77;6.13;;;-0.80;99.90;;;;;;5049021;28;20499;-51
2023/04/06 05:03:22;;;;;;;7.20;6.47;;;-0.70;99.90;;;;;;5050870;28;20464;-51
2023/04/06 05:05:50;;;;;;;9.37;6.90;;;-0.70;99.90;;;;;;5050925;28;20536;-51
2023/04/06 05:08:17;;;;;;;7.90;6.03;;;-0.70;99.90;;;;;;5050375;28;20491;-51
2023/04/06 05:10:44;;;;;;;7.87;6.60;;;-0.70;99.90;;;;;;5049027;28;20465;-52
2023/04/06 05:13:10;;;;;;;7.07;6.37;;;-0.70;99.90;;;;;;5052063;28;20448;-52
2023/04/06 05:15:37;;;;;;;10.17;7.10;;;-0.70;99.90;;;;;;5039409;28;20575;-51
2023/04/06 05:18:04;;;;;;;6.90;6.27;;;-0.60;99.90;;;;;;5050766;28;20465;-52
2023/04/06 05:20:31;;;;;;;7.10;6.40;;;-0.60;99.90;;;;;;5050180;28;20468;-52
2023/04/06 05:22:59;;;;;;;9.67;6.70;;;-0.60;99.90;;;;;;5049866;28;20486;-52
2023/04/06 05:25:26;;;;;;;9.70;6.20;;;-0.50;99.90;;;;;;5049351;28;20541;-52
2023/04/06 05:27:53;;;;;;;9.30;7.30;;;-0.50;99.90;;;;;;5051498;28;20457;-52
2023/04/06 05:30:20;;;;;;;7.10;6.40;;;-0.40;99.90;;;;;;5050924;28;20528;-52
2023/04/06 05:32:47;;;;;;;7.23;6.50;;;-0.40;99.90;;;;;;5047414;28;20493;-52
2023/04/06 05:35:13;;;;;;;7.43;6.27;;;-0.30;99.90;;;;;;5047038;28;20452;-52
2023/04/06 05:37:40;;;;;;;8.97;6.67;;;-0.20;83.80;;;;;;5051634;28;20517;-51
2023/04/06 05:40:09;;;;;;;7.67;6.97;;;-0.10;99.90;;;;;;5050059;28;20472;-52
2023/04/06 05:42:38;;;;;;;10.23;7.03;;;0.00;99.90;;;;;;5052562;28;20489;-51
2023/04/06 05:45:05;;;;;;;14.73;7.00;;;0.10;99.90;;;;;;5054366;28;20567;-52
2023/04/06 05:47:32;;;;;;;9.00;6.37;;;0.20;83.50;;;;;;5052672;28;20822;-52
2023/04/06 05:49:59;;;;;;;7.90;5.83;;;0.30;20.50;;;;;;5054658;28;20465;-52
2023/04/06 05:52:25;;;;;;;7.20;6.50;;;0.50;29.20;;;;;;5059391;22;20497;-53
2023/04/06 05:54:53;;;;;;;7.37;6.63;;;0.60;33.90;;;;;;5035121;28;20455;-52
2023/04/06 05:57:21;;;;;;;11.30;7.67;;;0.70;47.70;;;;;;5038338;28;20466;-51
2023/04/06 05:59:48;;;;;;;11.60;7.50;;;0.90;57.30;;;;;;5035669;28;20515;-53
2023/04/06 06:02:15;;;;;;;12.70;7.40;;;1.20;58.60;;;;;;5042141;28;20842;-53
2023/04/06 06:04:41;;;;;;;8.90;7.53;;;1.40;74.10;;;;;;5035398;28;20489;-52
2023/04/06 06:07:08;;;;;;;14.83;7.80;;;1.80;99.90;;;;;;5023100;28;20467;-52
2023/04/06 06:09:34;;;;;;;8.97;7.00;;;2.20;99.90;;;;;;5017575;28;20867;-52
2023/04/06 06:12:01;;;;;;;9.37;7.83;;;2.50;99.90;;;;;;5042508;28;20461;-52
2023/04/06 06:14:29;;;;;;;10.80;7.83;;;2.60;99.90;;;;;;5035051;28;20447;-52
2023/04/06 06:16:56;;;;;;;9.77;8.03;;;2.80;99.90;;;;;;5038066;28;20468;-52
2023/04/06 06:19:22;;;;;;;8.20;7.20;;;3.00;99.90;;;;;;5027237;28;20613;-52
2023/04/06 06:21:49;;;;;;;10.70;7.80;;;3.20;99.90;;;;;;5037255;28;20467;-52
2023/04/06 06:24:16;;;;;;;12.40;7.13;;;3.40;99.90;;;;;;5044309;28;20521;-52
2023/04/06 06:26:42;;;;;;;9.53;7.70;;;3.80;47.40;;;;;;5036698;28;20474;-51
2023/04/06 06:29:09;;;;;;;9.00;8.10;;;4.00;73.50;;;;;;5035345;28;20457;-53
2023/04/06 06:31:37;;;;;;;11.47;7.47;;;4.20;74.70;;;;;;5035042;28;20501;-52
2023/04/06 06:34:04;;;;;;;11.23;7.90;;;4.40;80.60;;;;;;5032875;28;20555;-51
2023/04/06 06:36:31;;;;;;;14.53;8.20;;;4.70;93.60;;;;;;5040616;28;20461;-52
2023/04/06 06:38:58;;;;;;;10.77;7.60;;;5.10;97.10;;;;;;5034933;28;20532;-52
2023/04/06 06:41:24;;;;;;;8.40;7.47;;;5.20;99.90;;;;;;5035940;28;20998;-52
2023/04/06 06:43:52;;;;;;;7.37;6.67;;;5.30;99.90;;;;;;5035723;28;20527;-54
2023/04/06 06:46:21;;;;;;;8.73;7.83;;;5.40;99.90;;;;;;5041848;28;20521;-51
2023/04/06 06:48:49;;;;;;;10.57;7.50;;;5.50;99.90;;;;;;5035718;28;20547;-52
2023/04/06 06:51:16;;;;;;;9.70;7.63;;;5.60;99.90;;;;;;5033045;28;20460;-51
2023/04/06 06:53:42;;;;;;;10.47;8.27;;;5.50;99.90;;;;;;5026610;28;20532;-53
2023/04/06 06:56:09;;;;;;;12.17;7.40;;;5.60;99.90;;;;;;5027400;28;20453;-52
2023/04/06 06:58:35;;;;;;;13.67;7.90;;;5.60;99.90;;;;;;5026908;28;20460;-53
2023/04/06 07:01:02;;;;;;;8.60;6.70;;;5.40;99.90;;;;;;5019330;28;20503;-52
2023/04/06 07:03:29;;;;;;;10.67;7.17;;;5.30;99.90;;;;;;5031547;28;20485;-52
2023/04/06 07:05:57;;;;;;;8.10;6.97;;;5.20;99.90;;;;;;5023512;28;20480;-52
2023/04/06 07:08:25;;;;;;;9.63;6.80;;;5.20;99.90;;;;;;5034352;28;21030;-52
2023/04/06 07:10:53;;;;;;;7.33;6.63;;;5.50;99.90;;;;;;5035691;28;20489;-53
2023/04/06 07:13:22;;;;;;;9.10;7.70;;;5.70;99.90;;;;;;5033022;28;20532;-56
2023/04/06 07:15:49;;;;;;;8.37;6.93;;;5.80;99.90;;;;;;5028562;28;20451;-52
2023/04/06 07:18:15;;;;;;;7.53;6.83;;;5.90;99.90;;;;;;5034162;28;20457;-53
2023/04/06 07:20:42;;;;;;;12.40;6.70;;;5.90;99.90;;;;;;5034849;28;20472;-54
2023/04/06 07:23:10;;;;;;;7.33;6.63;;;5.90;99.90;;;;;;5035051;28;20999;-52
2023/04/06 07:25:37;;;;;;;8.03;7.00;;;6.20;99.90;;;;;;5032150;28;20481;-52
2023/04/06 07:28:04;;;;;;;12.90;7.47;;;6.40;99.90;;;;;;5034429;28;20811;-52
2023/04/06 07:30:31;;;;;;;7.40;6.40;;;6.90;99.90;;;;;;5030785;28;20538;-52
2023/04/06 07:32:58;;;;;;;12.13;6.80;;;6.70;99.90;;;;;;5027064;28;20512;-53
2023/04/06 07:35:26;;;;;;;15.33;7.40;;;7.20;99.90;;;;;;5033513;28;20471;-51
2023/04/06 07:37:53;;;;;;;8.97;7.60;;;7.40;99.90;;;;;;5030824;28;20519;-52
2023/04/06 07:40:20;;;;;;;10.00;6.70;;;7.60;99.90;;;;;;5026302;28;20457;-52
2023/04/06 07:42:47;;;;;;;9.43;7.60;;;8.00;99.90;;;;;;5029763;28;20481;-52
2023/04/06 07:45:15;;;;;;;12.00;7.10;;;8.50;99.90;;;;;;5024912;28;20859;-52
2023/04/06 07:47:42;;;;;;;16.03;7.30;;;8.30;99.90;;;;;;5023328;28;20500;-52
2023/04/06 07:50:09;;;;;;;11.43;6.17;;;8.40;99.90;;;;;;5024804;28;20461;-52
2023/04/06 07:52:36;;;;;;;10.17;6.37;;;8.50;99.90;;;;;;5027327;28;20500;-52
2023/04/06 07:55:03;;;;;;;17.90;6.70;;;8.50;99.90;;;;;;5026292;28;20462;-53
2023/04/06 07:57:31;;;;;;;8.93;5.60;;;8.70;99.90;;;;;;5031254;28;20452;-52
2023/04/06 07:59:57;;;;;;;8.43;6.53;;;8.60;99.90;;;;;;5023922;28;20461;-52
2023/04/06 08:02:24;;;;;;;8.23;6.50;;;8.60;99.90;;;;;;5023148;28;20485;-52
2023/04/06 08:04:51;;;;;;;7.60;6.10;;;8.70;99.90;;;;;;5028546;28;20467;-53
2023/04/06 08:07:17;;;;;;;8.87;5.70;;;8.70;99.90;;;;;;5032577;28;20933;-52
2023/04/06 08:09:44;;;;;;;7.53;5.63;;;9.00;99.90;;;;;;5027866;28;20523;-52
2023/04/06 08:12:10;;;;;;;10.23;6.00;;;9.00;99.90;;;;;;5030993;28;21012;-53
2023/04/06 08:14:38;;;;;;;10.17;5.90;;;9.10;99.90;;;;;;5028892;28;20534;-52
2023/04/06 08:17:05;;;;;;;7.67;5.13;;;9.50;99.90;;;;;;5029264;28;20532;-51
2023/04/06 08:19:31;;;;;;;13.40;5.40;;;9.70;99.90;;;;;;5034605;28;20550;-51
2023/04/06 08:21:58;;;;;;;8.37;6.03;;;10.10;99.90;;;;;;5027324;28;20484;-52
2023/04/06 08:24:24;;;;;;;8.93;5.23;;;10.30;99.90;;;;;;5026032;28;20465;-52
2023/04/06 08:26:51;;;;;;;5.27;4.87;;;10.60;99.90;;;;;;5036462;28;20488;-52
2023/04/06 08:29:18;;;;;;;5.93;5.10;;;10.40;99.90;;;;;;5031459;28;20560;-52
2023/04/06 08:31:46;;;;;;;9.40;5.47;;;11.00;99.90;;;;;;5029339;28;21045;-51
2023/04/06 08:34:13;;;;;;;6.67;4.90;;;10.50;99.90;;;;;;5028185;28;20459;-52
2023/04/06 08:36:39;;;;;;;5.40;4.60;;;10.30;99.90;;;;;;5030165;28;20448;-53
2023/04/06 08:39:06;;;;;;;4.80;4.40;;;10.50;99.90;;;;;;5030990;28;20468;-52
2023/04/06 08:41:33;;;;;;;11.30;4.00;;;10.40;99.90;;;;;;5031136;28;20965;-52
2023/04/06 08:44:02;;;;;;;4.67;4.30;;;10.50;99.90;;;;;;5032645;28;20466;-52
2023/04/06 08:46:30;;;;;;;7.07;4.87;;;10.90;99.90;;;;;;5031480;28;20516;-52
2023/04/06 08:48:59;;;;;;;4.60;4.20;;;11.00;99.90;;;;;;5030243;28;20470;-52
2023/04/06 08:51:26;;;;;;;4.13;3.73;;;11.30;99.90;;;;;;5032311;28;20546;-51
2023/04/06 08:53:54;;;;;;;6.77;4.27;;;11.50;99.90;;;;;;5031775;28;20511;-52
2023/04/06 08:56:22;;;;;;;5.67;4.00;;;11.30;99.90;;;;;;5028928;28;20502;-53
2023/04/06 08:58:49;;;;;;;7.87;3.70;;;11.40;99.90;;;;;;5021952;28;20456;-53
2023/04/06 09:01:18;;;;;;;6.13;3.70;;;12.00;99.90;;;;;;5036173;28;20442;-52
2023/04/06 09:03:47;;;;;;;4.70;3.10;;;12.60;99.90;;;;;;5035317;28;20471;-53
2023/04/06 09:06:15;;;;;;;4.80;3.67;;;12.80;99.90;;;;;;5026202;28;20481;-52
2023/04/06 09:08:42;;;;;;;4.07;3.33;;;13.60;99.90;;;;;;5013620;28;20478;-51
2023/04/06 09:11:10;;;;;;;11.83;4.20;;;12.70;99.90;;;;;;5007827;28;20562;-52
2023/04/06 09:13:48;;;;;;;3.40;3.10;;;13.40;99.90;;;;;;5010497;28;20474;-52
2023/04/06 09:16:15;;;;;;;14.27;3.30;;;14.40;99.90;;;;;;5007651;28;20462;-53
2023/04/06 09:18:42;;;;;;;2.90;2.70;;;13.30;99.90;;;;;;5014679;28;20464;-52
2023/04/06 09:21:09;;;;;;;6.03;3.50;;;14.50;99.90;;;;;;5013402;28;20466;-52
2023/04/06 09:23:38;;;;;;;3.67;3.20;;;13.80;99.90;;;;;;5002752;28;20594;-52
2023/04/06 09:26:09;;;;;;;4.90;3.00;;;12.90;99.90;;;;;;5010901;28;20516;-54
2023/04/06 09:28:47;;;;;;;4.03;3.70;;;11.60;99.90;;;;;;5024467;28;20476;-53
2023/04/06 09:31:15;;;;;;;4.13;3.40;;;12.40;99.90;;;;;;5017469;28;20512;-53
2023/04/06 09:33:43;;;;;;;4.43;3.20;;;12.20;99.90;;;;;;5021562;28;20491;-53
2023/04/06 09:36:10;;;;;;;3.00;2.80;;;13.30;99.90;;;;;;5025487;28;20459;-53
2023/04/06 09:38:39;;;;;;;6.43;3.60;;;13.20;99.90;;;;;;5031451;28;20476;-52
2023/04/06 09:41:06;;;;;;;3.20;3.00;;;13.30;99.90;;;;;;5030295;28;20965;-52
2023/04/06 09:43:33;;;;;;;3.87;3.33;;;13.20;99.90;;;;;;5031790;28;20524;-54
2023/04/06 09:46:02;;;;;;;3.60;3.10;;;13.90;99.90;;;;;;5032030;28;20508;-52
2023/04/06 09:48:34;;;;;;;7.70;3.43;;;13.80;89.90;;;;;;5028760;28;20482;-53
2023/04/06 09:51:05;;;;;;;4.73;2.70;;;14.10;95.70;;;;;;5031788;28;20526;-52
2023/04/06 09:53:34;;;;;;;4.10;3.70;;;14.20;96.30;;;;;;5028741;28;20480;-52
2023/04/06 09:56:06;;;;;;;3.00;2.80;;;14.50;74.30;;;;;;5031194;28;20446;-53
2023/04/06 09:58:36;;;;;;;4.67;2.90;;;14.30;71.90;;;;;;5030348;28;22018;-52
2023/04/06 10:01:10;;;;;;;3.33;2.87;;;14.50;23.10;;;;;;5020016;28;20470;-53
2023/04/06 10:03:46;;;;;;;2.07;1.97;;;14.90;20.20;;;;;;5025799;28;20529;-53
2023/04/06 10:06:15;;;;;;;6.60;2.70;;;14.00;23.50;;;;;;5027838;28;20482;-53
2023/04/06 10:08:46;;;;;;;75.90;8.10;;;14.70;21.70;;;;;;5027918;28;20516;-52
2023/04/06 10:11:15;;;;;;;125.10;14.20;;;14.50;25.10;;;;;;5032187;28;20464;-53
2023/04/06 10:13:42;;;;;;;9.97;4.07;;;13.00;83.20;;;;;;5034835;28;20489;-53
2023/04/06 10:16:09;;;;;;;22.97;4.90;;;14.00;75.10;;;;;;5022524;28;20465;-53
2023/04/06 10:18:37;;;;;;;15.83;4.00;;;14.40;81.20;;;;;;5026517;28;21005;-53
2023/04/06 10:21:09;;;;;;;13.93;4.27;;;13.40;21.90;;;;;;5031231;28;20945;-53
2023/04/06 10:23:37;;;;;;;3.47;3.17;;;14.80;86.30;;;;;;5032210;28;20485;-53
2023/04/06 10:26:04;;;;;;;3.87;2.70;;;14.80;26.90;;;;;;5022099;28;20834;-53
2023/04/06 10:28:35;;;;;;;4.80;2.47;;;15.50;28.90;;;;;;5032144;28;20895;-54
2023/04/06 10:31:05;;;;;;;3.40;2.33;;;16.00;30.30;;;;;;5029726;28;21043;-53
2023/04/06 10:33:32;;;;;;;3.70;2.57;;;15.20;22.90;;;;;;5030013;28;20551;-53
2023/04/06 10:35:59;;;;;;;2.60;2.40;;;15.10;29.30;;;;;;5027281;28;20455;-53
2023/04/06 10:38:35;;;;;;;3.47;2.30;;;14.10;26.80;;;;;;5034292;28;20449;-53
2023/04/06 10:41:05;;;;;;;1.90;1.80;;;14.70;28.80;;;;;;5028674;28;20673;-53
2023/04/06 10:43:36;;;;;;;2.80;2.60;;;13.10;26.50;;;;;;5034400;28;20957;-52
2023/04/06 10:46:03;;;;;;;3.63;2.53;;;14.00;27.40;;;;;;5033683;28;20485;-53
2023/04/06 10:48:38;;;;;;;2.67;2.43;;;14.30;26.40;;;;;;5034805;28;20472;-52
2023/04/06 10:51:11;;;;;;;3.27;2.20;;;14.10;28.40;;;;;;5034853;28;20451;-53
2023/04/06 10:53:37;;;;;;;3.10;2.87;;;13.40;27.80;;;;;;5033339;28;20526;-52
2023/04/06 10:56:05;;;;;;;22.30;4.97;;;12.60;26.00;;;;;;5033787;28;20498;-52
2023/04/06 10:58:32;;;;;;;6.13;2.40;;;13.10;21.90;;;;;;5032624;28;20651;-52
2023/04/06 11:01:00;;;;;;;2.57;2.30;;;14.60;22.90;;;;;;5034495;28;20464;-53
2023/04/06 11:03:27;;;;;;;2.97;2.77;;;13.30;26.10;;;;;;5034489;28;20502;-53
2023/04/06 11:05:54;;;;;;;4.00;2.77;;;13.80;22.80;;;;;;5033331;28;20462;-54
2023/04/06 11:08:25;;;;;;;2.90;2.70;;;13.90;20.50;;;;;;5031011;28;20856;-52
2023/04/06 11:10:52;;;;;;;5.20;2.77;;;14.50;26.10;;;;;;5032662;28;20449;-53
2023/04/06 11:13:18;;;;;;;2.83;2.50;;;14.60;30.10;;;;;;5028337;28;20476;-53
2023/04/06 11:15:45;;;;;;;2.13;2.03;;;14.00;30.10;;;;;;5033342;28;20446;-54
2023/04/06 11:18:13;;;;;;;2.53;2.37;;;13.10;25.90;;;;;;5015165;28;21253;-53
2023/04/06 11:20:41;;;;;;;8.07;2.13;;;12.80;31.60;;;;;;5015875;28;20441;-53
2023/04/06 11:23:07;;;;;;;3.17;2.73;;;13.10;28.30;;;;;;5025039;28;20518;-53
2023/04/06 11:25:34;;;;;;;3.93;2.60;;;12.90;25.60;;;;;;5023241;28;20473;-53
2023/04/06 11:28:01;;;;;;;2.80;2.60;;;12.60;23.80;;;;;;5026793;28;20510;-53
2023/04/06 11:30:27;;;;;;;6.63;2.60;;;12.90;26.20;;;;;;5017018;28;20888;-52
2023/04/06 11:33:01;;;;;;;4.33;2.37;;;13.90;27.00;;;;;;5020244;28;20513;-53
2023/04/06 11:35:33;;;;;;;2.43;2.23;;;14.20;32.30;;;;;;5032660;28;20450;-53
2023/04/06 11:38:04;;;;;;;14.10;2.00;;;13.70;28.80;;;;;;5022925;28;20509;-52
2023/04/06 11:40:32;;;;;;;2.80;2.60;;;12.70;30.60;;;;;;5027452;28;20502;-53
2023/04/06 11:42:59;;;;;;;2.70;2.60;;;12.20;29.20;;;;;;5028033;28;20505;-53
2023/04/06 11:45:26;;;;;;;2.90;2.70;;;12.20;26.70;;;;;;5032521;28;20451;-53
2023/04/06 11:48:01;;;;;;;2.73;2.40;;;12.00;29.30;;;;;;5030692;28;20535;-52
2023/04/06 11:50:33;;;;;;;4.73;2.87;;;11.90;26.50;;;;;;5017719;28;20577;-53
2023/04/06 11:53:01;;;;;;;2.87;2.53;;;12.10;26.60;;;;;;5032498;28;20481;-53
2023/04/06 11:55:28;;;;;;;2.37;2.23;;;12.80;30.50;;;;;;5029685;28;20445;-53
2023/04/06 11:57:55;;;;;;;3.23;2.67;;;12.80;30.60;;;;;;5025299;28;20885;-53
2023/04/06 12:00:22;;;;;;;9.10;2.43;;;13.30;29.30;;;;;;5026872;28;20473;-52
2023/04/06 12:02:49;;;;;;;9.50;3.10;;;13.10;28.30;;;;;;5030893;28;20480;-51
2023/04/06 12:05:16;;;;;;;4.57;2.90;;;13.50;29.80;;;;;;5031881;28;20472;-52
2023/04/06 12:07:44;;;;;;;3.63;2.60;;;12.90;27.80;;;;;;5031904;28;21059;-53
2023/04/06 12:10:11;;;;;;;2.37;2.20;;;13.40;29.60;;;;;;5019013;28;20446;-52
2023/04/06 12:12:37;;;;;;;4.77;2.63;;;13.10;29.80;;;;;;5033189;28;20535;-52
2023/04/06 12:15:04;;;;;;;5.60;3.40;;;13.20;29.20;;;;;;5030352;28;20830;-52
2023/04/06 12:17:31;;;;;;;2.40;2.20;;;13.10;23.50;;;;;;5032242;28;20462;-51
2023/04/06 12:19:58;;;;;;;2.87;2.67;;;13.70;30.70;;;;;;5009579;28;20455;-51
2023/04/06 12:22:24;;;;;;;2.90;2.60;;;13.40;32.70;;;;;;5020479;28;20493;-51
2023/04/06 12:24:52;;;;;;;1.90;1.80;;;13.20;32.30;;;;;;5032627;28;20446;-52
2023/04/06 12:27:19;;;;;;;2.37;2.17;;;12.60;29.50;;;;;;5028366;28;21001;-53
2023/04/06 12:29:45;;;;;;;1.90;1.80;;;13.00;30.40;;;;;;5030710;28;20874;-52
2023/04/06 12:32:12;;;;;;;2.33;2.13;;;13.30;28.60;;;;;;5032586;28;20528;-52
2023/04/06 12:34:39;;;;;;;2.33;2.23;;;13.70;30.70;;;;;;5031130;28;20463;-52
2023/04/06 12:37:05;;;;;;;3.53;2.33;;;13.30;30.40;;;;;;5024504;28;20462;-51
2023/04/06 12:39:32;;;;;;;2.13;2.03;;;13.40;26.20;;;;;;5027302;28;20445;-52
2023/04/06 12:42:01;;;;;;;2.13;2.03;;;13.50;29.70;;;;;;5031091;28;20980;-51
2023/04/06 12:44:27;;;;;;;2.83;2.60;;;13.40;30.90;;;;;;5029887;28;20461;-52
2023/04/06 12:46:55;;;;;;;2.70;2.50;;;14.10;28.20;;;;;;5031620;28;20893;-52
2023/04/06 12:49:21;;;;;;;2.60;2.40;;;14.00;32.30;;;;;;5030821;28;20457;-52
2023/04/06 12:51:48;;;;;;;3.37;2.77;;;14.40;32.10;;;;;;5032219;28;20507;-51